Aérodrome :
LOGIN :

S'inscrire | Disclaimer

   EN    FR    IT 

 










Légende :    VFR   VFR Marginal   IFR   IFR Intensif   IFR Très Intensif
Visi : 
Plafond : 
>= 8 km
>= 3000ft
5 à 8 km
1000 à 3000 ft
1500m à 5 km
500 à 1000 ft
800 à 1500m
200 à 500 ft
< 800m
< 200 ft
Symboles :   Orages  Brouillard  Fortes neiges  Fortes précipitations  Vent > 20 kt
SIGMETs :   Divers  Orages  Givrage  Turbulence  Onde Orograph.  Cendres Volcan.







- Altitude de l'aérodrome : 39 ft
- Code IATA : ANR


EBAW - Anvers / Antwerpen Deurne

DERNIER METAR :
  • 261650Z 25013KT CAVOK 14/01 Q1017 NOSIG

METARs EXPIRÉS :
  • 261620Z 26011KT 220V280 CAVOK 14/01 Q1016 NOSIG
  • 261550Z 26013KT CAVOK 15/01 Q1017 NOSIG
  • 261520Z 27011KT 220V300 CAVOK 15/01 Q1017 NOSIG
  • 261450Z 27011KT 240V300 9999 SCT049TCU 14/01 Q1017 NOSIG
  • 261420Z 28011KT 260V320 9999 SCT048TCU 14/02 Q1017 NOSIG

TAF TAF EBAW
Valide du 26 à 15h jusqu'au 27 à 00h UTC


261409Z 2615/2624 27010KT 9999 FEW045
Pas de NOTAMs connus pour ce terrain.



MET'MAP, la Météo Aéronautique d'un coup d'oeil ! - Copyright ORBIFLY Décembre 2007 - Disclaimer

ORBIFLY MET'MAP TEAM :

Programmation & Développement : Alexandra Zaïnal
Conception & Développement : Baudouin d'Aumeries
Co-Programmation & Développement : Marc-Olivier Méhu
Soutien technique & logistique : Manuel Goepfert

Contact : metmap@orbifly.com




SOURCES & CREDITS :

   NOAA